sensor_id;sensor_type;location;lat;lon;timestamp;P1;durP1;ratioP1;P2;durP2;ratioP2
28653;SDS011;24320;56.980;24.336;2023-02-17T00:02:21;37.83;;;9.80;;
28653;SDS011;24320;56.980;24.336;2023-02-17T00:04:48;30.42;;;9.73;;
28653;SDS011;24320;56.980;24.336;2023-02-17T00:07:15;35.45;;;8.48;;
28653;SDS011;24320;56.980;24.336;2023-02-17T00:09:42;28.20;;;8.77;;
28653;SDS011;24320;56.980;24.336;2023-02-17T00:12:09;27.15;;;8.80;;
28653;SDS011;24320;56.980;24.336;2023-02-17T00:14:37;30.55;;;7.70;;
28653;SDS011;24320;56.980;24.336;2023-02-17T00:17:05;30.02;;;8.57;;
28653;SDS011;24320;56.980;24.336;2023-02-17T00:19:32;23.48;;;7.78;;
28653;SDS011;24320;56.980;24.336;2023-02-17T00:22:02;25.15;;;7.40;;
28653;SDS011;24320;56.980;24.336;2023-02-17T00:24:36;22.65;;;7.88;;
28653;SDS011;24320;56.980;24.336;2023-02-17T00:27:09;24.33;;;7.93;;
28653;SDS011;24320;56.980;24.336;2023-02-17T00:29:40;21.40;;;7.05;;
28653;SDS011;24320;56.980;24.336;2023-02-17T00:34:40;24.08;;;7.03;;
28653;SDS011;24320;56.980;24.336;2023-02-17T00:37:14;17.05;;;6.15;;
28653;SDS011;24320;56.980;24.336;2023-02-17T00:39:50;25.80;;;7.63;;
28653;SDS011;24320;56.980;24.336;2023-02-17T00:42:25;18.90;;;7.38;;
28653;SDS011;24320;56.980;24.336;2023-02-17T00:45:01;20.05;;;7.45;;
28653;SDS011;24320;56.980;24.336;2023-02-17T00:47:32;18.50;;;6.30;;
28653;SDS011;24320;56.980;24.336;2023-02-17T00:50:04;19.08;;;6.28;;
28653;SDS011;24320;56.980;24.336;2023-02-17T00:52:36;25.00;;;6.45;;
28653;SDS011;24320;56.980;24.336;2023-02-17T00:55:11;18.60;;;6.80;;
28653;SDS011;24320;56.980;24.336;2023-02-17T00:57:44;21.02;;;6.55;;
28653;SDS011;24320;56.980;24.336;2023-02-17T01:00:16;13.85;;;5.97;;
28653;SDS011;24320;56.980;24.336;2023-02-17T01:02:48;21.08;;;6.72;;
28653;SDS011;24320;56.980;24.336;2023-02-17T01:05:18;22.83;;;7.53;;
28653;SDS011;24320;56.980;24.336;2023-02-17T01:07:49;19.63;;;6.93;;
28653;SDS011;24320;56.980;24.336;2023-02-17T01:10:22;21.90;;;7.28;;
28653;SDS011;24320;56.980;24.336;2023-02-17T01:12:55;20.85;;;6.95;;
28653;SDS011;24320;56.980;24.336;2023-02-17T01:15:27;28.67;;;7.45;;
28653;SDS011;24320;56.980;24.336;2023-02-17T01:17:56;17.15;;;5.93;;
28653;SDS011;24320;56.980;24.336;2023-02-17T01:20:26;23.90;;;7.68;;
28653;SDS011;24320;56.980;24.336;2023-02-17T01:22:59;18.83;;;6.65;;
28653;SDS011;24320;56.980;24.336;2023-02-17T01:25:31;21.88;;;7.47;;
28653;SDS011;24320;56.980;24.336;2023-02-17T01:28:08;20.05;;;7.35;;
28653;SDS011;24320;56.980;24.336;2023-02-17T01:30:44;20.90;;;7.38;;
28653;SDS011;24320;56.980;24.336;2023-02-17T01:33:15;20.70;;;7.53;;
28653;SDS011;24320;56.980;24.336;2023-02-17T01:35:44;19.23;;;6.00;;
28653;SDS011;24320;56.980;24.336;2023-02-17T01:38:16;21.98;;;7.60;;
28653;SDS011;24320;56.980;24.336;2023-02-17T01:40:50;21.02;;;6.68;;
28653;SDS011;24320;56.980;24.336;2023-02-17T01:43:24;24.08;;;7.28;;
28653;SDS011;24320;56.980;24.336;2023-02-17T01:45:57;18.73;;;6.90;;
28653;SDS011;24320;56.980;24.336;2023-02-17T01:48:41;20.15;;;7.00;;
28653;SDS011;24320;56.980;24.336;2023-02-17T01:51:20;22.42;;;6.82;;
28653;SDS011;24320;56.980;24.336;2023-02-17T01:56:30;18.45;;;6.53;;
28653;SDS011;24320;56.980;24.336;2023-02-17T01:59:09;21.67;;;6.72;;
28653;SDS011;24320;56.980;24.336;2023-02-17T02:01:56;21.75;;;7.22;;
28653;SDS011;24320;56.980;24.336;2023-02-17T02:04:34;20.58;;;6.93;;
28653;SDS011;24320;56.980;24.336;2023-02-17T02:07:09;20.25;;;6.72;;
28653;SDS011;24320;56.980;24.336;2023-02-17T02:10:10;19.95;;;6.00;;
28653;SDS011;24320;56.980;24.336;2023-02-17T02:12:44;19.73;;;6.38;;
28653;SDS011;24320;56.980;24.336;2023-02-17T02:15:17;16.80;;;5.72;;
28653;SDS011;24320;56.980;24.336;2023-02-17T02:18:08;18.13;;;6.15;;
28653;SDS011;24320;56.980;24.336;2023-02-17T02:21:00;17.40;;;6.75;;
28653;SDS011;24320;56.980;24.336;2023-02-17T02:26:27;16.55;;;6.30;;
28653;SDS011;24320;56.980;24.336;2023-02-17T02:32:35;22.52;;;6.57;;
28653;SDS011;24320;56.980;24.336;2023-02-17T02:40:30;17.52;;;5.95;;
28653;SDS011;24320;56.980;24.336;2023-02-17T02:43:06;16.33;;;6.03;;
28653;SDS011;24320;56.980;24.336;2023-02-17T02:45:38;19.23;;;6.40;;
28653;SDS011;24320;56.980;24.336;2023-02-17T02:48:11;13.88;;;6.50;;
28653;SDS011;24320;56.980;24.336;2023-02-17T02:53:42;16.50;;;5.55;;
28653;SDS011;24320;56.980;24.336;2023-02-17T02:59:23;15.68;;;6.30;;
28653;SDS011;24320;56.980;24.336;2023-02-17T03:08:30;16.13;;;5.32;;
28653;SDS011;24320;56.980;24.336;2023-02-17T03:11:15;14.30;;;5.72;;
28653;SDS011;24320;56.980;24.336;2023-02-17T03:14:03;14.80;;;5.82;;
28653;SDS011;24320;56.980;24.336;2023-02-17T03:16:44;16.42;;;6.22;;
28653;SDS011;24320;56.980;24.336;2023-02-17T03:19:20;18.38;;;5.80;;
28653;SDS011;24320;56.980;24.336;2023-02-17T03:22:07;14.73;;;6.00;;
28653;SDS011;24320;56.980;24.336;2023-02-17T03:24:49;17.50;;;5.95;;
28653;SDS011;24320;56.980;24.336;2023-02-17T03:27:20;19.67;;;7.07;;
28653;SDS011;24320;56.980;24.336;2023-02-17T03:29:50;15.25;;;5.85;;
28653;SDS011;24320;56.980;24.336;2023-02-17T03:32:24;20.95;;;6.13;;
28653;SDS011;24320;56.980;24.336;2023-02-17T03:34:57;17.20;;;6.00;;
28653;SDS011;24320;56.980;24.336;2023-02-17T03:37:29;13.77;;;4.57;;
28653;SDS011;24320;56.980;24.336;2023-02-17T03:40:03;16.92;;;6.55;;
28653;SDS011;24320;56.980;24.336;2023-02-17T03:42:38;14.55;;;5.63;;
28653;SDS011;24320;56.980;24.336;2023-02-17T03:45:10;16.35;;;5.93;;
28653;SDS011;24320;56.980;24.336;2023-02-17T03:47:43;14.38;;;5.53;;
28653;SDS011;24320;56.980;24.336;2023-02-17T03:50:16;18.40;;;6.25;;
28653;SDS011;24320;56.980;24.336;2023-02-17T03:52:47;13.82;;;5.72;;
28653;SDS011;24320;56.980;24.336;2023-02-17T03:55:16;17.50;;;5.60;;
28653;SDS011;24320;56.980;24.336;2023-02-17T03:57:48;16.80;;;6.15;;
28653;SDS011;24320;56.980;24.336;2023-02-17T04:00:17;15.63;;;5.53;;
28653;SDS011;24320;56.980;24.336;2023-02-17T04:02:49;16.27;;;6.57;;
28653;SDS011;24320;56.980;24.336;2023-02-17T04:05:21;20.08;;;6.38;;
28653;SDS011;24320;56.980;24.336;2023-02-17T04:07:53;18.92;;;6.55;;
28653;SDS011;24320;56.980;24.336;2023-02-17T04:10:29;17.73;;;6.07;;
28653;SDS011;24320;56.980;24.336;2023-02-17T04:13:00;18.25;;;5.78;;
28653;SDS011;24320;56.980;24.336;2023-02-17T04:15:33;15.98;;;6.00;;
28653;SDS011;24320;56.980;24.336;2023-02-17T04:18:08;14.32;;;5.35;;
28653;SDS011;24320;56.980;24.336;2023-02-17T04:20:39;21.63;;;5.82;;
28653;SDS011;24320;56.980;24.336;2023-02-17T04:23:11;12.95;;;5.32;;
28653;SDS011;24320;56.980;24.336;2023-02-17T04:25:46;14.80;;;5.85;;
28653;SDS011;24320;56.980;24.336;2023-02-17T04:30:47;11.98;;;5.22;;
28653;SDS011;24320;56.980;24.336;2023-02-17T04:33:20;18.50;;;6.63;;
28653;SDS011;24320;56.980;24.336;2023-02-17T04:35:52;18.52;;;6.53;;
28653;SDS011;24320;56.980;24.336;2023-02-17T04:38:29;16.67;;;6.30;;
28653;SDS011;24320;56.980;24.336;2023-02-17T04:41:01;20.02;;;7.18;;
28653;SDS011;24320;56.980;24.336;2023-02-17T04:43:34;26.02;;;7.07;;
28653;SDS011;24320;56.980;24.336;2023-02-17T04:46:08;19.00;;;6.85;;
28653;SDS011;24320;56.980;24.336;2023-02-17T04:48:41;28.75;;;7.32;;
28653;SDS011;24320;56.980;24.336;2023-02-17T04:51:12;19.52;;;6.70;;
28653;SDS011;24320;56.980;24.336;2023-02-17T04:53:45;21.85;;;7.57;;
28653;SDS011;24320;56.980;24.336;2023-02-17T04:56:21;19.15;;;7.20;;
28653;SDS011;24320;56.980;24.336;2023-02-17T05:01:24;23.02;;;6.95;;
28653;SDS011;24320;56.980;24.336;2023-02-17T05:03:58;30.58;;;7.10;;
28653;SDS011;24320;56.980;24.336;2023-02-17T05:06:30;22.05;;;7.22;;
28653;SDS011;24320;56.980;24.336;2023-02-17T05:09:06;27.45;;;8.27;;
28653;SDS011;24320;56.980;24.336;2023-02-17T05:11:39;15.50;;;6.20;;
28653;SDS011;24320;56.980;24.336;2023-02-17T05:14:08;30.00;;;7.75;;
28653;SDS011;24320;56.980;24.336;2023-02-17T05:16:42;29.40;;;7.18;;
28653;SDS011;24320;56.980;24.336;2023-02-17T05:19:16;30.90;;;7.07;;
28653;SDS011;24320;56.980;24.336;2023-02-17T05:21:50;26.58;;;7.53;;
28653;SDS011;24320;56.980;24.336;2023-02-17T05:24:24;40.97;;;7.72;;
28653;SDS011;24320;56.980;24.336;2023-02-17T05:26:59;35.35;;;7.88;;
28653;SDS011;24320;56.980;24.336;2023-02-17T05:29:28;22.42;;;7.90;;
28653;SDS011;24320;56.980;24.336;2023-02-17T05:32:00;33.33;;;8.93;;
28653;SDS011;24320;56.980;24.336;2023-02-17T05:34:29;30.92;;;9.05;;
28653;SDS011;24320;56.980;24.336;2023-02-17T05:37:01;45.53;;;9.45;;
28653;SDS011;24320;56.980;24.336;2023-02-17T05:39:35;38.25;;;9.50;;
28653;SDS011;24320;56.980;24.336;2023-02-17T05:42:04;38.53;;;11.13;;
28653;SDS011;24320;56.980;24.336;2023-02-17T05:44:36;42.05;;;10.95;;
28653;SDS011;24320;56.980;24.336;2023-02-17T05:47:09;46.42;;;11.43;;
28653;SDS011;24320;56.980;24.336;2023-02-17T05:49:40;25.23;;;8.10;;
28653;SDS011;24320;56.980;24.336;2023-02-17T05:52:14;25.08;;;8.02;;
28653;SDS011;24320;56.980;24.336;2023-02-17T05:54:46;39.05;;;9.38;;
28653;SDS011;24320;56.980;24.336;2023-02-17T05:57:16;45.58;;;9.57;;
28653;SDS011;24320;56.980;24.336;2023-02-17T05:59:47;31.25;;;8.88;;
28653;SDS011;24320;56.980;24.336;2023-02-17T06:02:19;38.40;;;8.77;;
28653;SDS011;24320;56.980;24.336;2023-02-17T06:04:51;29.65;;;8.82;;
28653;SDS011;24320;56.980;24.336;2023-02-17T06:07:22;25.70;;;8.05;;
28653;SDS011;24320;56.980;24.336;2023-02-17T06:09:54;45.47;;;9.50;;
28653;SDS011;24320;56.980;24.336;2023-02-17T06:12:27;30.55;;;9.25;;
28653;SDS011;24320;56.980;24.336;2023-02-17T06:15:00;47.70;;;9.32;;
28653;SDS011;24320;56.980;24.336;2023-02-17T06:17:36;29.98;;;9.07;;
28653;SDS011;24320;56.980;24.336;2023-02-17T06:20:10;33.60;;;10.38;;
28653;SDS011;24320;56.980;24.336;2023-02-17T06:25:10;30.20;;;8.45;;
28653;SDS011;24320;56.980;24.336;2023-02-17T06:27:41;38.47;;;8.65;;
28653;SDS011;24320;56.980;24.336;2023-02-17T06:30:12;28.92;;;8.30;;
28653;SDS011;24320;56.980;24.336;2023-02-17T06:32:44;44.08;;;9.35;;
28653;SDS011;24320;56.980;24.336;2023-02-17T06:37:45;48.97;;;10.02;;
28653;SDS011;24320;56.980;24.336;2023-02-17T06:40:20;41.00;;;8.55;;
28653;SDS011;24320;56.980;24.336;2023-02-17T06:42:54;44.17;;;9.40;;
28653;SDS011;24320;56.980;24.336;2023-02-17T06:45:26;50.05;;;9.05;;
28653;SDS011;24320;56.980;24.336;2023-02-17T06:47:56;54.75;;;9.82;;
28653;SDS011;24320;56.980;24.336;2023-02-17T06:52:56;39.60;;;9.13;;
28653;SDS011;24320;56.980;24.336;2023-02-17T06:55:36;58.60;;;10.47;;
28653;SDS011;24320;56.980;24.336;2023-02-17T06:58:10;62.28;;;9.65;;
28653;SDS011;24320;56.980;24.336;2023-02-17T07:00:42;56.00;;;9.50;;
28653;SDS011;24320;56.980;24.336;2023-02-17T07:03:16;53.90;;;9.88;;
28653;SDS011;24320;56.980;24.336;2023-02-17T07:05:48;86.40;;;11.43;;
28653;SDS011;24320;56.980;24.336;2023-02-17T07:08:20;62.47;;;10.32;;
28653;SDS011;24320;56.980;24.336;2023-02-17T07:10:51;33.13;;;9.18;;
28653;SDS011;24320;56.980;24.336;2023-02-17T07:13:26;39.65;;;9.80;;
28653;SDS011;24320;56.980;24.336;2023-02-17T07:15:57;44.72;;;9.48;;
28653;SDS011;24320;56.980;24.336;2023-02-17T07:18:28;43.75;;;9.38;;
28653;SDS011;24320;56.980;24.336;2023-02-17T07:21:00;45.92;;;10.25;;
28653;SDS011;24320;56.980;24.336;2023-02-17T07:26:23;45.70;;;9.27;;
28653;SDS011;24320;56.980;24.336;2023-02-17T07:28:55;33.35;;;8.45;;
28653;SDS011;24320;56.980;24.336;2023-02-17T07:31:25;39.78;;;9.57;;
28653;SDS011;24320;56.980;24.336;2023-02-17T07:34:01;29.95;;;9.02;;
28653;SDS011;24320;56.980;24.336;2023-02-17T07:36:36;40.15;;;8.48;;
28653;SDS011;24320;56.980;24.336;2023-02-17T07:39:09;33.40;;;9.13;;
28653;SDS011;24320;56.980;24.336;2023-02-17T07:41:41;30.40;;;8.73;;
28653;SDS011;24320;56.980;24.336;2023-02-17T07:44:13;23.65;;;8.43;;
28653;SDS011;24320;56.980;24.336;2023-02-17T07:46:46;37.50;;;9.60;;
28653;SDS011;24320;56.980;24.336;2023-02-17T07:49:16;25.87;;;8.87;;
28653;SDS011;24320;56.980;24.336;2023-02-17T07:51:48;29.25;;;8.82;;
28653;SDS011;24320;56.980;24.336;2023-02-17T07:54:20;29.83;;;9.63;;
28653;SDS011;24320;56.980;24.336;2023-02-17T07:56:50;19.95;;;6.53;;
28653;SDS011;24320;56.980;24.336;2023-02-17T07:59:24;23.10;;;9.07;;
28653;SDS011;24320;56.980;24.336;2023-02-17T08:01:56;25.38;;;9.02;;
28653;SDS011;24320;56.980;24.336;2023-02-17T08:04:30;31.10;;;9.30;;
28653;SDS011;24320;56.980;24.336;2023-02-17T08:07:02;31.27;;;9.90;;
28653;SDS011;24320;56.980;24.336;2023-02-17T08:09:36;38.25;;;10.00;;
28653;SDS011;24320;56.980;24.336;2023-02-17T08:12:26;30.90;;;9.95;;
28653;SDS011;24320;56.980;24.336;2023-02-17T08:15:16;31.80;;;9.35;;
28653;SDS011;24320;56.980;24.336;2023-02-17T08:17:47;34.40;;;9.75;;
28653;SDS011;24320;56.980;24.336;2023-02-17T08:20:22;27.95;;;9.60;;
28653;SDS011;24320;56.980;24.336;2023-02-17T08:22:54;36.00;;;11.23;;
28653;SDS011;24320;56.980;24.336;2023-02-17T08:25:30;30.42;;;10.50;;
28653;SDS011;24320;56.980;24.336;2023-02-17T08:28:05;40.33;;;11.40;;
28653;SDS011;24320;56.980;24.336;2023-02-17T08:30:37;36.63;;;13.95;;
28653;SDS011;24320;56.980;24.336;2023-02-17T08:33:08;35.00;;;11.48;;
28653;SDS011;24320;56.980;24.336;2023-02-17T08:35:41;34.10;;;11.40;;
28653;SDS011;24320;56.980;24.336;2023-02-17T08:38:16;29.10;;;10.60;;
28653;SDS011;24320;56.980;24.336;2023-02-17T08:40:49;34.90;;;11.13;;
28653;SDS011;24320;56.980;24.336;2023-02-17T08:43:20;32.75;;;10.73;;
28653;SDS011;24320;56.980;24.336;2023-02-17T08:45:52;39.47;;;10.68;;
28653;SDS011;24320;56.980;24.336;2023-02-17T08:48:21;31.08;;;10.38;;
28653;SDS011;24320;56.980;24.336;2023-02-17T08:50:53;35.60;;;10.45;;
28653;SDS011;24320;56.980;24.336;2023-02-17T08:53:26;34.75;;;11.15;;
28653;SDS011;24320;56.980;24.336;2023-02-17T08:55:59;34.30;;;10.52;;
28653;SDS011;24320;56.980;24.336;2023-02-17T08:58:31;28.23;;;11.18;;
28653;SDS011;24320;56.980;24.336;2023-02-17T09:01:03;33.80;;;10.38;;
28653;SDS011;24320;56.980;24.336;2023-02-17T09:03:37;29.98;;;10.32;;
28653;SDS011;24320;56.980;24.336;2023-02-17T09:06:10;29.75;;;10.20;;
28653;SDS011;24320;56.980;24.336;2023-02-17T09:08:42;29.65;;;9.23;;
28653;SDS011;24320;56.980;24.336;2023-02-17T09:11:18;35.92;;;11.15;;
28653;SDS011;24320;56.980;24.336;2023-02-17T09:13:55;26.65;;;10.38;;
28653;SDS011;24320;56.980;24.336;2023-02-17T09:16:27;28.65;;;10.13;;
28653;SDS011;24320;56.980;24.336;2023-02-17T09:18:58;29.73;;;9.95;;
28653;SDS011;24320;56.980;24.336;2023-02-17T09:21:32;28.50;;;9.93;;
28653;SDS011;24320;56.980;24.336;2023-02-17T09:24:17;34.78;;;10.32;;
28653;SDS011;24320;56.980;24.336;2023-02-17T09:26:46;25.92;;;9.10;;
28653;SDS011;24320;56.980;24.336;2023-02-17T09:29:18;24.98;;;9.88;;
28653;SDS011;24320;56.980;24.336;2023-02-17T09:31:50;28.50;;;9.75;;
28653;SDS011;24320;56.980;24.336;2023-02-17T09:34:26;33.05;;;10.88;;
28653;SDS011;24320;56.980;24.336;2023-02-17T09:36:59;32.67;;;10.35;;
28653;SDS011;24320;56.980;24.336;2023-02-17T09:39:29;28.88;;;10.30;;
28653;SDS011;24320;56.980;24.336;2023-02-17T09:42:00;25.98;;;8.80;;
28653;SDS011;24320;56.980;24.336;2023-02-17T09:44:43;31.80;;;10.38;;
28653;SDS011;24320;56.980;24.336;2023-02-17T09:47:37;27.77;;;9.70;;
28653;SDS011;24320;56.980;24.336;2023-02-17T09:50:16;25.15;;;10.38;;
28653;SDS011;24320;56.980;24.336;2023-02-17T09:53:00;27.20;;;9.82;;
28653;SDS011;24320;56.980;24.336;2023-02-17T09:56:07;23.50;;;8.70;;
28653;SDS011;24320;56.980;24.336;2023-02-17T09:58:56;23.23;;;9.98;;
28653;SDS011;24320;56.980;24.336;2023-02-17T10:01:32;23.85;;;10.13;;
28653;SDS011;24320;56.980;24.336;2023-02-17T10:04:11;23.90;;;9.02;;
28653;SDS011;24320;56.980;24.336;2023-02-17T10:09:51;25.45;;;9.05;;
28653;SDS011;24320;56.980;24.336;2023-02-17T10:12:35;21.90;;;8.90;;
28653;SDS011;24320;56.980;24.336;2023-02-17T10:15:18;21.50;;;8.02;;
28653;SDS011;24320;56.980;24.336;2023-02-17T10:17:59;27.48;;;8.82;;
28653;SDS011;24320;56.980;24.336;2023-02-17T10:20:44;22.45;;;8.32;;
28653;SDS011;24320;56.980;24.336;2023-02-17T10:23:27;28.50;;;9.32;;
28653;SDS011;24320;56.980;24.336;2023-02-17T10:32:20;28.88;;;9.57;;
28653;SDS011;24320;56.980;24.336;2023-02-17T10:40:19;26.88;;;9.88;;
28653;SDS011;24320;56.980;24.336;2023-02-17T10:42:56;30.02;;;10.98;;
28653;SDS011;24320;56.980;24.336;2023-02-17T10:48:15;24.20;;;9.82;;
28653;SDS011;24320;56.980;24.336;2023-02-17T10:50:55;32.47;;;10.82;;
28653;SDS011;24320;56.980;24.336;2023-02-17T10:53:32;30.45;;;10.57;;
28653;SDS011;24320;56.980;24.336;2023-02-17T11:01:47;29.08;;;10.85;;
28653;SDS011;24320;56.980;24.336;2023-02-17T11:04:19;30.60;;;11.55;;
28653;SDS011;24320;56.980;24.336;2023-02-17T11:06:53;29.20;;;10.90;;
28653;SDS011;24320;56.980;24.336;2023-02-17T11:09:29;28.92;;;10.35;;
28653;SDS011;24320;56.980;24.336;2023-02-17T11:12:05;25.15;;;11.20;;
28653;SDS011;24320;56.980;24.336;2023-02-17T11:14:46;27.80;;;10.68;;
28653;SDS011;24320;56.980;24.336;2023-02-17T11:22:46;23.92;;;10.38;;
28653;SDS011;24320;56.980;24.336;2023-02-17T11:25:34;25.50;;;10.13;;
28653;SDS011;24320;56.980;24.336;2023-02-17T11:28:13;29.23;;;10.68;;
28653;SDS011;24320;56.980;24.336;2023-02-17T11:30:55;25.73;;;9.57;;
28653;SDS011;24320;56.980;24.336;2023-02-17T11:33:36;23.17;;;8.80;;
28653;SDS011;24320;56.980;24.336;2023-02-17T11:36:19;23.30;;;9.88;;
28653;SDS011;24320;56.980;24.336;2023-02-17T11:39:12;26.13;;;10.50;;
28653;SDS011;24320;56.980;24.336;2023-02-17T11:41:50;23.35;;;9.00;;
28653;SDS011;24320;56.980;24.336;2023-02-17T11:44:26;25.98;;;10.60;;
28653;SDS011;24320;56.980;24.336;2023-02-17T11:47:04;25.55;;;10.23;;
28653;SDS011;24320;56.980;24.336;2023-02-17T11:52:55;25.33;;;10.80;;
28653;SDS011;24320;56.980;24.336;2023-02-17T11:58:36;31.40;;;10.38;;
28653;SDS011;24320;56.980;24.336;2023-02-17T12:05:24;22.63;;;9.68;;
28653;SDS011;24320;56.980;24.336;2023-02-17T12:08:01;26.23;;;10.13;;
28653;SDS011;24320;56.980;24.336;2023-02-17T12:13:27;28.25;;;11.02;;
28653;SDS011;24320;56.980;24.336;2023-02-17T12:16:26;33.20;;;10.32;;
28653;SDS011;24320;56.980;24.336;2023-02-17T12:22:17;27.35;;;9.95;;
28653;SDS011;24320;56.980;24.336;2023-02-17T12:33:10;30.50;;;9.93;;
28653;SDS011;24320;56.980;24.336;2023-02-17T12:38:25;28.63;;;10.00;;
28653;SDS011;24320;56.980;24.336;2023-02-17T12:43:54;23.65;;;9.18;;
28653;SDS011;24320;56.980;24.336;2023-02-17T12:46:46;24.60;;;9.57;;
28653;SDS011;24320;56.980;24.336;2023-02-17T12:49:47;28.35;;;9.95;;
28653;SDS011;24320;56.980;24.336;2023-02-17T12:55:02;30.08;;;10.45;;
28653;SDS011;24320;56.980;24.336;2023-02-17T12:58:18;28.45;;;10.70;;
28653;SDS011;24320;56.980;24.336;2023-02-17T13:00:53;27.15;;;10.68;;
28653;SDS011;24320;56.980;24.336;2023-02-17T13:03:41;25.38;;;9.90;;
28653;SDS011;24320;56.980;24.336;2023-02-17T13:06:22;26.95;;;10.68;;
28653;SDS011;24320;56.980;24.336;2023-02-17T13:09:32;30.40;;;11.23;;
28653;SDS011;24320;56.980;24.336;2023-02-17T13:14:50;28.98;;;10.30;;
28653;SDS011;24320;56.980;24.336;2023-02-17T13:20:23;28.15;;;11.07;;
28653;SDS011;24320;56.980;24.336;2023-02-17T13:23:13;31.67;;;10.82;;
28653;SDS011;24320;56.980;24.336;2023-02-17T13:26:40;32.33;;;11.23;;
28653;SDS011;24320;56.980;24.336;2023-02-17T13:31:46;36.10;;;11.48;;
28653;SDS011;24320;56.980;24.336;2023-02-17T13:34:35;29.50;;;10.52;;
28653;SDS011;24320;56.980;24.336;2023-02-17T13:37:20;32.30;;;12.10;;
28653;SDS011;24320;56.980;24.336;2023-02-17T13:42:47;29.02;;;11.02;;
28653;SDS011;24320;56.980;24.336;2023-02-17T13:45:36;32.85;;;10.52;;
28653;SDS011;24320;56.980;24.336;2023-02-17T14:49:06;31.85;;;11.35;;
28653;SDS011;24320;56.980;24.336;2023-02-17T14:51:38;31.35;;;11.25;;
28653;SDS011;24320;56.980;24.336;2023-02-17T14:54:14;28.80;;;10.90;;
28653;SDS011;24320;56.980;24.336;2023-02-17T14:56:57;33.35;;;12.52;;
28653;SDS011;24320;56.980;24.336;2023-02-17T14:59:38;28.58;;;10.23;;
28653;SDS011;24320;56.980;24.336;2023-02-17T15:02:18;29.13;;;12.10;;
28653;SDS011;24320;56.980;24.336;2023-02-17T15:04:52;28.23;;;12.23;;
28653;SDS011;24320;56.980;24.336;2023-02-17T15:07:25;29.15;;;10.40;;
28653;SDS011;24320;56.980;24.336;2023-02-17T15:10:00;25.02;;;8.45;;
28653;SDS011;24320;56.980;24.336;2023-02-17T15:12:35;34.63;;;11.02;;
28653;SDS011;24320;56.980;24.336;2023-02-17T15:15:08;30.38;;;10.45;;
28653;SDS011;24320;56.980;24.336;2023-02-17T15:17:47;33.08;;;10.60;;
28653;SDS011;24320;56.980;24.336;2023-02-17T15:20:19;22.13;;;8.60;;
28653;SDS011;24320;56.980;24.336;2023-02-17T15:22:50;38.42;;;12.40;;
28653;SDS011;24320;56.980;24.336;2023-02-17T15:25:23;33.17;;;11.63;;
28653;SDS011;24320;56.980;24.336;2023-02-17T15:27:53;33.33;;;11.43;;
28653;SDS011;24320;56.980;24.336;2023-02-17T15:30:24;31.83;;;10.65;;
28653;SDS011;24320;56.980;24.336;2023-02-17T15:32:57;58.25;;;21.73;;
28653;SDS011;24320;56.980;24.336;2023-02-17T15:35:30;32.58;;;11.60;;
28653;SDS011;24320;56.980;24.336;2023-02-17T15:38:03;24.27;;;8.85;;
28653;SDS011;24320;56.980;24.336;2023-02-17T15:40:39;31.08;;;11.00;;
28653;SDS011;24320;56.980;24.336;2023-02-17T15:43:14;66.57;;;26.73;;
28653;SDS011;24320;56.980;24.336;2023-02-17T15:45:48;28.67;;;9.98;;
28653;SDS011;24320;56.980;24.336;2023-02-17T15:48:21;31.45;;;11.07;;
28653;SDS011;24320;56.980;24.336;2023-02-17T15:50:56;53.13;;;26.33;;
28653;SDS011;24320;56.980;24.336;2023-02-17T15:53:29;31.88;;;11.60;;
28653;SDS011;24320;56.980;24.336;2023-02-17T15:58:49;35.75;;;12.10;;
28653;SDS011;24320;56.980;24.336;2023-02-17T16:01:29;26.40;;;10.27;;
28653;SDS011;24320;56.980;24.336;2023-02-17T16:04:08;32.88;;;10.07;;
28653;SDS011;24320;56.980;24.336;2023-02-17T16:06:48;23.00;;;8.40;;
28653;SDS011;24320;56.980;24.336;2023-02-17T16:09:18;26.60;;;9.50;;
28653;SDS011;24320;56.980;24.336;2023-02-17T16:11:52;28.25;;;10.10;;
28653;SDS011;24320;56.980;24.336;2023-02-17T16:14:32;35.10;;;11.18;;
28653;SDS011;24320;56.980;24.336;2023-02-17T16:17:10;33.17;;;11.07;;
28653;SDS011;24320;56.980;24.336;2023-02-17T16:19:45;29.77;;;9.93;;
28653;SDS011;24320;56.980;24.336;2023-02-17T16:22:20;30.48;;;11.60;;
28653;SDS011;24320;56.980;24.336;2023-02-17T16:24:50;26.75;;;8.27;;
28653;SDS011;24320;56.980;24.336;2023-02-17T16:27:20;40.22;;;11.07;;
28653;SDS011;24320;56.980;24.336;2023-02-17T16:29:55;27.00;;;9.82;;
28653;SDS011;24320;56.980;24.336;2023-02-17T16:32:29;27.48;;;7.72;;
28653;SDS011;24320;56.980;24.336;2023-02-17T16:35:02;31.38;;;10.82;;
28653;SDS011;24320;56.980;24.336;2023-02-17T16:37:36;32.33;;;9.98;;
28653;SDS011;24320;56.980;24.336;2023-02-17T16:40:12;23.67;;;8.50;;
28653;SDS011;24320;56.980;24.336;2023-02-17T16:42:58;35.42;;;11.52;;
28653;SDS011;24320;56.980;24.336;2023-02-17T16:45:30;41.38;;;10.80;;
28653;SDS011;24320;56.980;24.336;2023-02-17T17:49:50;27.63;;;10.45;;
28653;SDS011;24320;56.980;24.336;2023-02-17T17:52:20;25.60;;;9.93;;
28653;SDS011;24320;56.980;24.336;2023-02-17T17:54:56;21.65;;;9.60;;
28653;SDS011;24320;56.980;24.336;2023-02-17T17:57:26;20.03;;;7.43;;
28653;SDS011;24320;56.980;24.336;2023-02-17T17:59:57;30.70;;;10.27;;
28653;SDS011;24320;56.980;24.336;2023-02-17T18:02:30;18.35;;;7.57;;
28653;SDS011;24320;56.980;24.336;2023-02-17T18:05:03;21.88;;;6.97;;
28653;SDS011;24320;56.980;24.336;2023-02-17T18:07:35;23.85;;;8.55;;
28653;SDS011;24320;56.980;24.336;2023-02-17T18:10:06;21.50;;;8.27;;
28653;SDS011;24320;56.980;24.336;2023-02-17T18:12:41;25.75;;;10.48;;
28653;SDS011;24320;56.980;24.336;2023-02-17T18:15:13;24.55;;;10.25;;
28653;SDS011;24320;56.980;24.336;2023-02-17T18:17:45;26.85;;;8.82;;
28653;SDS011;24320;56.980;24.336;2023-02-17T18:20:18;22.50;;;9.05;;
28653;SDS011;24320;56.980;24.336;2023-02-17T18:22:48;26.55;;;10.23;;
28653;SDS011;24320;56.980;24.336;2023-02-17T18:25:18;21.48;;;8.15;;
28653;SDS011;24320;56.980;24.336;2023-02-17T18:27:50;24.77;;;9.57;;
28653;SDS011;24320;56.980;24.336;2023-02-17T18:30:29;20.60;;;9.05;;
28653;SDS011;24320;56.980;24.336;2023-02-17T18:32:58;7.78;;;4.80;;
28653;SDS011;24320;56.980;24.336;2023-02-17T18:35:27;23.25;;;9.85;;
28653;SDS011;24320;56.980;24.336;2023-02-17T18:37:58;19.77;;;8.80;;
28653;SDS011;24320;56.980;24.336;2023-02-17T18:40:29;13.63;;;5.88;;
28653;SDS011;24320;56.980;24.336;2023-02-17T18:43:00;22.70;;;8.30;;
28653;SDS011;24320;56.980;24.336;2023-02-17T18:45:36;24.42;;;9.02;;
28653;SDS011;24320;56.980;24.336;2023-02-17T18:48:28;22.65;;;9.45;;
28653;SDS011;24320;56.980;24.336;2023-02-17T18:50:58;25.38;;;9.77;;
28653;SDS011;24320;56.980;24.336;2023-02-17T18:53:39;18.30;;;6.55;;
28653;SDS011;24320;56.980;24.336;2023-02-17T18:56:15;21.00;;;8.82;;
28653;SDS011;24320;56.980;24.336;2023-02-17T18:58:56;20.20;;;8.07;;
28653;SDS011;24320;56.980;24.336;2023-02-17T19:01:29;16.17;;;7.00;;
28653;SDS011;24320;56.980;24.336;2023-02-17T19:04:06;18.52;;;8.48;;
28653;SDS011;24320;56.980;24.336;2023-02-17T19:06:40;20.23;;;9.05;;
28653;SDS011;24320;56.980;24.336;2023-02-17T19:09:10;21.05;;;9.07;;